sensor_id;sensor_type;location;lat;lon;timestamp;P1;durP1;ratioP1;P2;durP2;ratioP2
12567;SDS011;6349;50.904;6.136;2023-05-07T00:01:47;2.80;;;2.60;;
12567;SDS011;6349;50.904;6.136;2023-05-07T00:03:48;4.25;;;2.80;;
12567;SDS011;6349;50.904;6.136;2023-05-07T00:05:50;2.95;;;2.65;;
12567;SDS011;6349;50.904;6.136;2023-05-07T00:07:53;4.93;;;2.80;;
12567;SDS011;6349;50.904;6.136;2023-05-07T00:09:55;2.80;;;2.60;;
12567;SDS011;6349;50.904;6.136;2023-05-07T00:11:57;3.10;;;2.83;;
12567;SDS011;6349;50.904;6.136;2023-05-07T00:13:59;4.37;;;2.83;;
12567;SDS011;6349;50.904;6.136;2023-05-07T00:16:02;3.63;;;2.55;;
12567;SDS011;6349;50.904;6.136;2023-05-07T00:18:04;3.27;;;2.57;;
12567;SDS011;6349;50.904;6.136;2023-05-07T00:20:06;3.05;;;2.75;;
12567;SDS011;6349;50.904;6.136;2023-05-07T00:22:08;3.83;;;2.40;;
12567;SDS011;6349;50.904;6.136;2023-05-07T00:24:10;2.80;;;2.15;;
12567;SDS011;6349;50.904;6.136;2023-05-07T00:26:12;2.33;;;2.13;;
12567;SDS011;6349;50.904;6.136;2023-05-07T00:28:14;2.35;;;2.15;;
12567;SDS011;6349;50.904;6.136;2023-05-07T00:30:16;2.53;;;2.20;;
12567;SDS011;6349;50.904;6.136;2023-05-07T00:32:17;2.60;;;2.40;;
12567;SDS011;6349;50.904;6.136;2023-05-07T00:34:20;2.30;;;2.10;;
12567;SDS011;6349;50.904;6.136;2023-05-07T00:36:22;2.40;;;2.20;;
12567;SDS011;6349;50.904;6.136;2023-05-07T00:38:24;4.95;;;3.00;;
12567;SDS011;6349;50.904;6.136;2023-05-07T00:40:26;4.40;;;2.83;;
12567;SDS011;6349;50.904;6.136;2023-05-07T00:42:28;3.95;;;2.70;;
12567;SDS011;6349;50.904;6.136;2023-05-07T00:44:30;4.97;;;2.80;;
12567;SDS011;6349;50.904;6.136;2023-05-07T00:46:32;3.60;;;3.00;;
12567;SDS011;6349;50.904;6.136;2023-05-07T00:48:34;3.17;;;2.58;;
12567;SDS011;6349;50.904;6.136;2023-05-07T00:50:36;2.88;;;2.63;;
12567;SDS011;6349;50.904;6.136;2023-05-07T00:52:37;3.10;;;2.78;;
12567;SDS011;6349;50.904;6.136;2023-05-07T00:54:40;3.65;;;2.83;;
12567;SDS011;6349;50.904;6.136;2023-05-07T00:56:42;4.43;;;2.95;;
12567;SDS011;6349;50.904;6.136;2023-05-07T00:58:44;3.20;;;2.83;;
12567;SDS011;6349;50.904;6.136;2023-05-07T01:00:46;3.15;;;2.83;;
12567;SDS011;6349;50.904;6.136;2023-05-07T01:02:47;3.17;;;2.67;;
12567;SDS011;6349;50.904;6.136;2023-05-07T01:04:50;3.17;;;2.88;;
12567;SDS011;6349;50.904;6.136;2023-05-07T01:06:52;6.18;;;3.20;;
12567;SDS011;6349;50.904;6.136;2023-05-07T01:08:57;2.85;;;2.65;;
12567;SDS011;6349;50.904;6.136;2023-05-07T01:10:59;2.90;;;2.70;;
12567;SDS011;6349;50.904;6.136;2023-05-07T01:13:02;4.75;;;2.80;;
12567;SDS011;6349;50.904;6.136;2023-05-07T01:15:04;3.78;;;2.78;;
12567;SDS011;6349;50.904;6.136;2023-05-07T01:17:09;3.20;;;2.88;;
12567;SDS011;6349;50.904;6.136;2023-05-07T01:19:11;5.60;;;3.40;;
12567;SDS011;6349;50.904;6.136;2023-05-07T01:21:15;6.05;;;3.20;;
12567;SDS011;6349;50.904;6.136;2023-05-07T01:23:19;3.40;;;3.10;;
12567;SDS011;6349;50.904;6.136;2023-05-07T01:25:21;3.83;;;2.95;;
12567;SDS011;6349;50.904;6.136;2023-05-07T01:27:23;4.82;;;3.17;;
12567;SDS011;6349;50.904;6.136;2023-05-07T01:29:25;3.50;;;3.20;;
12567;SDS011;6349;50.904;6.136;2023-05-07T01:31:27;4.93;;;3.50;;
12567;SDS011;6349;50.904;6.136;2023-05-07T01:33:31;3.50;;;3.17;;
12567;SDS011;6349;50.904;6.136;2023-05-07T01:35:39;4.70;;;3.10;;
12567;SDS011;6349;50.904;6.136;2023-05-07T01:37:45;3.63;;;3.20;;
12567;SDS011;6349;50.904;6.136;2023-05-07T01:39:50;3.97;;;3.10;;
12567;SDS011;6349;50.904;6.136;2023-05-07T01:41:54;5.85;;;3.17;;
12567;SDS011;6349;50.904;6.136;2023-05-07T01:43:57;3.40;;;3.13;;
12567;SDS011;6349;50.904;6.136;2023-05-07T01:46:01;6.37;;;3.07;;
12567;SDS011;6349;50.904;6.136;2023-05-07T01:48:03;4.93;;;3.10;;
12567;SDS011;6349;50.904;6.136;2023-05-07T01:50:08;4.22;;;3.33;;
12567;SDS011;6349;50.904;6.136;2023-05-07T01:52:11;5.78;;;3.20;;
12567;SDS011;6349;50.904;6.136;2023-05-07T01:54:13;5.87;;;3.27;;
12567;SDS011;6349;50.904;6.136;2023-05-07T01:56:16;4.80;;;3.40;;
12567;SDS011;6349;50.904;6.136;2023-05-07T01:58:18;4.67;;;3.33;;
12567;SDS011;6349;50.904;6.136;2023-05-07T02:00:20;6.15;;;3.50;;
12567;SDS011;6349;50.904;6.136;2023-05-07T02:02:23;4.03;;;3.55;;
12567;SDS011;6349;50.904;6.136;2023-05-07T02:04:24;5.43;;;3.67;;
12567;SDS011;6349;50.904;6.136;2023-05-07T02:06:26;5.33;;;3.27;;
12567;SDS011;6349;50.904;6.136;2023-05-07T02:08:28;5.23;;;3.50;;
12567;SDS011;6349;50.904;6.136;2023-05-07T02:10:30;5.95;;;3.50;;
12567;SDS011;6349;50.904;6.136;2023-05-07T02:12:32;3.53;;;3.23;;
12567;SDS011;6349;50.904;6.136;2023-05-07T02:14:33;5.50;;;3.27;;
12567;SDS011;6349;50.904;6.136;2023-05-07T02:16:35;4.95;;;3.80;;
12567;SDS011;6349;50.904;6.136;2023-05-07T02:18:37;4.03;;;3.60;;
12567;SDS011;6349;50.904;6.136;2023-05-07T02:20:39;5.75;;;3.38;;
12567;SDS011;6349;50.904;6.136;2023-05-07T02:22:49;4.43;;;3.40;;
12567;SDS011;6349;50.904;6.136;2023-05-07T02:24:51;5.70;;;3.50;;
12567;SDS011;6349;50.904;6.136;2023-05-07T02:26:53;3.42;;;3.13;;
12567;SDS011;6349;50.904;6.136;2023-05-07T02:28:55;5.40;;;3.60;;
12567;SDS011;6349;50.904;6.136;2023-05-07T02:30:56;3.80;;;3.50;;
12567;SDS011;6349;50.904;6.136;2023-05-07T02:33:00;4.50;;;3.40;;
12567;SDS011;6349;50.904;6.136;2023-05-07T02:35:03;3.60;;;3.20;;
12567;SDS011;6349;50.904;6.136;2023-05-07T02:37:05;4.68;;;3.45;;
12567;SDS011;6349;50.904;6.136;2023-05-07T02:39:06;4.83;;;3.47;;
12567;SDS011;6349;50.904;6.136;2023-05-07T02:41:08;6.35;;;3.78;;
12567;SDS011;6349;50.904;6.136;2023-05-07T02:43:10;4.80;;;3.70;;
12567;SDS011;6349;50.904;6.136;2023-05-07T02:45:12;4.33;;;3.73;;
12567;SDS011;6349;50.904;6.136;2023-05-07T02:47:15;4.18;;;3.78;;
12567;SDS011;6349;50.904;6.136;2023-05-07T02:49:17;3.97;;;3.67;;
12567;SDS011;6349;50.904;6.136;2023-05-07T02:51:21;5.57;;;3.60;;
12567;SDS011;6349;50.904;6.136;2023-05-07T02:53:23;4.23;;;3.60;;
12567;SDS011;6349;50.904;6.136;2023-05-07T02:55:28;4.50;;;3.67;;
12567;SDS011;6349;50.904;6.136;2023-05-07T02:57:30;4.00;;;3.67;;
12567;SDS011;6349;50.904;6.136;2023-05-07T02:59:32;3.63;;;3.33;;
12567;SDS011;6349;50.904;6.136;2023-05-07T03:01:34;4.07;;;3.40;;
12567;SDS011;6349;50.904;6.136;2023-05-07T03:03:35;4.40;;;3.57;;
12567;SDS011;6349;50.904;6.136;2023-05-07T03:05:37;3.70;;;3.40;;
12567;SDS011;6349;50.904;6.136;2023-05-07T03:07:39;4.10;;;3.20;;
12567;SDS011;6349;50.904;6.136;2023-05-07T03:09:41;3.50;;;3.08;;
12567;SDS011;6349;50.904;6.136;2023-05-07T03:11:42;3.87;;;3.47;;
12567;SDS011;6349;50.904;6.136;2023-05-07T03:13:44;4.45;;;3.80;;
12567;SDS011;6349;50.904;6.136;2023-05-07T03:15:46;3.97;;;3.60;;
12567;SDS011;6349;50.904;6.136;2023-05-07T03:17:48;4.20;;;3.57;;
12567;SDS011;6349;50.904;6.136;2023-05-07T03:19:49;3.77;;;3.47;;
12567;SDS011;6349;50.904;6.136;2023-05-07T03:21:51;5.70;;;3.67;;
12567;SDS011;6349;50.904;6.136;2023-05-07T03:23:53;4.17;;;3.37;;
12567;SDS011;6349;50.904;6.136;2023-05-07T03:25:54;3.50;;;3.20;;
12567;SDS011;6349;50.904;6.136;2023-05-07T03:27:56;4.83;;;3.90;;
12567;SDS011;6349;50.904;6.136;2023-05-07T03:29:58;4.37;;;3.60;;
12567;SDS011;6349;50.904;6.136;2023-05-07T03:32:01;3.43;;;3.00;;
12567;SDS011;6349;50.904;6.136;2023-05-07T03:34:02;3.73;;;3.43;;
12567;SDS011;6349;50.904;6.136;2023-05-07T03:36:05;3.33;;;3.03;;
12567;SDS011;6349;50.904;6.136;2023-05-07T03:38:07;4.45;;;3.30;;
12567;SDS011;6349;50.904;6.136;2023-05-07T03:40:09;3.47;;;3.17;;
12567;SDS011;6349;50.904;6.136;2023-05-07T03:42:13;5.83;;;3.53;;
12567;SDS011;6349;50.904;6.136;2023-05-07T03:44:16;3.78;;;3.30;;
12567;SDS011;6349;50.904;6.136;2023-05-07T03:46:18;4.65;;;3.90;;
12567;SDS011;6349;50.904;6.136;2023-05-07T03:48:20;5.25;;;3.63;;
12567;SDS011;6349;50.904;6.136;2023-05-07T03:50:22;3.92;;;3.40;;
12567;SDS011;6349;50.904;6.136;2023-05-07T03:52:24;3.63;;;3.33;;
12567;SDS011;6349;50.904;6.136;2023-05-07T03:54:27;4.47;;;3.80;;
12567;SDS011;6349;50.904;6.136;2023-05-07T03:56:29;5.45;;;3.35;;
12567;SDS011;6349;50.904;6.136;2023-05-07T03:58:32;3.23;;;2.93;;
12567;SDS011;6349;50.904;6.136;2023-05-07T04:00:32;5.43;;;3.30;;
12567;SDS011;6349;50.904;6.136;2023-05-07T04:02:39;4.77;;;3.20;;
12567;SDS011;6349;50.904;6.136;2023-05-07T04:04:40;4.37;;;3.67;;
12567;SDS011;6349;50.904;6.136;2023-05-07T04:06:43;4.50;;;3.30;;
12567;SDS011;6349;50.904;6.136;2023-05-07T04:08:45;5.30;;;3.37;;
12567;SDS011;6349;50.904;6.136;2023-05-07T04:10:47;5.10;;;3.45;;
12567;SDS011;6349;50.904;6.136;2023-05-07T04:12:48;4.00;;;3.30;;
12567;SDS011;6349;50.904;6.136;2023-05-07T04:14:50;6.63;;;3.50;;
12567;SDS011;6349;50.904;6.136;2023-05-07T04:16:52;6.10;;;3.83;;
12567;SDS011;6349;50.904;6.136;2023-05-07T04:18:53;3.60;;;3.27;;
12567;SDS011;6349;50.904;6.136;2023-05-07T04:20:54;5.25;;;3.55;;
12567;SDS011;6349;50.904;6.136;2023-05-07T04:22:56;5.50;;;3.73;;
12567;SDS011;6349;50.904;6.136;2023-05-07T04:24:58;6.67;;;4.03;;
12567;SDS011;6349;50.904;6.136;2023-05-07T04:27:00;4.70;;;3.53;;
12567;SDS011;6349;50.904;6.136;2023-05-07T04:29:01;4.50;;;3.43;;
12567;SDS011;6349;50.904;6.136;2023-05-07T04:31:03;4.77;;;3.90;;
12567;SDS011;6349;50.904;6.136;2023-05-07T04:33:05;5.57;;;3.70;;
12567;SDS011;6349;50.904;6.136;2023-05-07T04:35:08;6.10;;;4.03;;
12567;SDS011;6349;50.904;6.136;2023-05-07T04:37:10;4.10;;;3.70;;
12567;SDS011;6349;50.904;6.136;2023-05-07T04:39:12;4.57;;;3.67;;
12567;SDS011;6349;50.904;6.136;2023-05-07T04:41:13;4.00;;;3.40;;
12567;SDS011;6349;50.904;6.136;2023-05-07T04:43:16;7.40;;;4.00;;
12567;SDS011;6349;50.904;6.136;2023-05-07T04:45:17;4.33;;;3.57;;
12567;SDS011;6349;50.904;6.136;2023-05-07T04:47:19;5.80;;;3.70;;
12567;SDS011;6349;50.904;6.136;2023-05-07T04:49:21;6.43;;;4.27;;
12567;SDS011;6349;50.904;6.136;2023-05-07T04:51:23;4.07;;;3.67;;
12567;SDS011;6349;50.904;6.136;2023-05-07T04:53:25;5.27;;;4.00;;
12567;SDS011;6349;50.904;6.136;2023-05-07T04:55:27;6.50;;;3.57;;
12567;SDS011;6349;50.904;6.136;2023-05-07T04:57:29;3.60;;;3.23;;
12567;SDS011;6349;50.904;6.136;2023-05-07T04:59:32;5.83;;;3.30;;
12567;SDS011;6349;50.904;6.136;2023-05-07T05:01:34;4.67;;;3.40;;
12567;SDS011;6349;50.904;6.136;2023-05-07T05:03:36;5.27;;;3.40;;
12567;SDS011;6349;50.904;6.136;2023-05-07T05:05:38;3.70;;;3.30;;
12567;SDS011;6349;50.904;6.136;2023-05-07T05:07:40;5.00;;;3.10;;
12567;SDS011;6349;50.904;6.136;2023-05-07T05:09:41;4.53;;;3.17;;
12567;SDS011;6349;50.904;6.136;2023-05-07T05:11:43;4.73;;;3.00;;
12567;SDS011;6349;50.904;6.136;2023-05-07T05:13:45;4.37;;;2.97;;
12567;SDS011;6349;50.904;6.136;2023-05-07T05:15:49;3.10;;;2.80;;
12567;SDS011;6349;50.904;6.136;2023-05-07T05:17:51;3.67;;;3.20;;
12567;SDS011;6349;50.904;6.136;2023-05-07T05:19:52;3.30;;;3.00;;
12567;SDS011;6349;50.904;6.136;2023-05-07T05:21:53;3.30;;;2.80;;
12567;SDS011;6349;50.904;6.136;2023-05-07T05:23:55;3.20;;;2.90;;
12567;SDS011;6349;50.904;6.136;2023-05-07T05:25:57;3.78;;;3.10;;
12567;SDS011;6349;50.904;6.136;2023-05-07T05:27:59;4.63;;;2.80;;
12567;SDS011;6349;50.904;6.136;2023-05-07T05:30:01;4.03;;;2.70;;
12567;SDS011;6349;50.904;6.136;2023-05-07T05:32:03;3.40;;;2.80;;
12567;SDS011;6349;50.904;6.136;2023-05-07T05:34:05;4.77;;;3.00;;
12567;SDS011;6349;50.904;6.136;2023-05-07T05:36:10;3.30;;;3.00;;
12567;SDS011;6349;50.904;6.136;2023-05-07T05:38:13;3.33;;;3.03;;
12567;SDS011;6349;50.904;6.136;2023-05-07T05:40:15;3.30;;;2.83;;
12567;SDS011;6349;50.904;6.136;2023-05-07T05:42:17;3.28;;;2.88;;
12567;SDS011;6349;50.904;6.136;2023-05-07T05:44:19;3.10;;;2.80;;
12567;SDS011;6349;50.904;6.136;2023-05-07T05:46:20;3.37;;;2.80;;
12567;SDS011;6349;50.904;6.136;2023-05-07T05:48:23;3.25;;;2.95;;
12567;SDS011;6349;50.904;6.136;2023-05-07T05:50:25;3.00;;;2.80;;
12567;SDS011;6349;50.904;6.136;2023-05-07T05:52:27;3.40;;;2.90;;
12567;SDS011;6349;50.904;6.136;2023-05-07T05:54:28;4.63;;;2.90;;
12567;SDS011;6349;50.904;6.136;2023-05-07T05:56:30;2.78;;;2.55;;
12567;SDS011;6349;50.904;6.136;2023-05-07T05:58:32;3.20;;;2.70;;
12567;SDS011;6349;50.904;6.136;2023-05-07T06:00:33;2.72;;;2.53;;
12567;SDS011;6349;50.904;6.136;2023-05-07T06:02:35;4.38;;;2.63;;
12567;SDS011;6349;50.904;6.136;2023-05-07T06:04:36;2.55;;;2.20;;
12567;SDS011;6349;50.904;6.136;2023-05-07T06:06:37;2.88;;;2.67;;
12567;SDS011;6349;50.904;6.136;2023-05-07T06:08:39;3.03;;;2.72;;
12567;SDS011;6349;50.904;6.136;2023-05-07T06:10:41;2.97;;;2.55;;
12567;SDS011;6349;50.904;6.136;2023-05-07T06:12:44;4.07;;;2.63;;
12567;SDS011;6349;50.904;6.136;2023-05-07T06:14:46;2.75;;;2.55;;
12567;SDS011;6349;50.904;6.136;2023-05-07T06:16:48;2.50;;;2.20;;
12567;SDS011;6349;50.904;6.136;2023-05-07T06:18:50;4.00;;;2.50;;
12567;SDS011;6349;50.904;6.136;2023-05-07T06:20:52;2.80;;;2.50;;
12567;SDS011;6349;50.904;6.136;2023-05-07T06:22:52;5.00;;;2.60;;
12567;SDS011;6349;50.904;6.136;2023-05-07T06:24:54;3.97;;;2.90;;
12567;SDS011;6349;50.904;6.136;2023-05-07T06:26:56;2.60;;;2.40;;
12567;SDS011;6349;50.904;6.136;2023-05-07T06:28:59;2.50;;;2.30;;
12567;SDS011;6349;50.904;6.136;2023-05-07T06:31:10;2.70;;;2.50;;
12567;SDS011;6349;50.904;6.136;2023-05-07T06:33:13;3.58;;;2.65;;
12567;SDS011;6349;50.904;6.136;2023-05-07T06:35:15;2.58;;;2.30;;
12567;SDS011;6349;50.904;6.136;2023-05-07T06:37:17;2.60;;;2.40;;
12567;SDS011;6349;50.904;6.136;2023-05-07T06:39:19;3.03;;;2.30;;
12567;SDS011;6349;50.904;6.136;2023-05-07T06:41:20;4.28;;;2.30;;
12567;SDS011;6349;50.904;6.136;2023-05-07T06:43:22;2.78;;;2.33;;
12567;SDS011;6349;50.904;6.136;2023-05-07T06:45:24;2.50;;;2.30;;
12567;SDS011;6349;50.904;6.136;2023-05-07T06:47:26;3.80;;;2.58;;
12567;SDS011;6349;50.904;6.136;2023-05-07T06:49:28;2.78;;;2.53;;
12567;SDS011;6349;50.904;6.136;2023-05-07T06:51:29;2.80;;;2.30;;
12567;SDS011;6349;50.904;6.136;2023-05-07T06:53:31;2.72;;;2.35;;
12567;SDS011;6349;50.904;6.136;2023-05-07T06:55:33;2.45;;;2.25;;
12567;SDS011;6349;50.904;6.136;2023-05-07T06:57:35;3.88;;;2.47;;
12567;SDS011;6349;50.904;6.136;2023-05-07T06:59:37;4.13;;;2.28;;
12567;SDS011;6349;50.904;6.136;2023-05-07T07:01:40;2.60;;;2.30;;
12567;SDS011;6349;50.904;6.136;2023-05-07T07:03:41;3.08;;;2.58;;
12567;SDS011;6349;50.904;6.136;2023-05-07T07:05:43;2.60;;;2.40;;
12567;SDS011;6349;50.904;6.136;2023-05-07T07:07:45;2.50;;;2.30;;
12567;SDS011;6349;50.904;6.136;2023-05-07T07:09:53;3.42;;;2.40;;
12567;SDS011;6349;50.904;6.136;2023-05-07T07:11:56;2.83;;;2.53;;
12567;SDS011;6349;50.904;6.136;2023-05-07T07:13:58;2.90;;;2.58;;
12567;SDS011;6349;50.904;6.136;2023-05-07T07:16:00;2.88;;;2.22;;
12567;SDS011;6349;50.904;6.136;2023-05-07T07:18:02;2.47;;;2.28;;
12567;SDS011;6349;50.904;6.136;2023-05-07T07:20:04;2.60;;;2.40;;
12567;SDS011;6349;50.904;6.136;2023-05-07T07:22:07;3.22;;;2.60;;
12567;SDS011;6349;50.904;6.136;2023-05-07T07:24:08;2.90;;;2.60;;
12567;SDS011;6349;50.904;6.136;2023-05-07T07:26:10;2.95;;;2.75;;
12567;SDS011;6349;50.904;6.136;2023-05-07T07:28:12;2.70;;;2.50;;
12567;SDS011;6349;50.904;6.136;2023-05-07T07:30:14;3.55;;;2.70;;
12567;SDS011;6349;50.904;6.136;2023-05-07T07:32:16;4.80;;;2.80;;
12567;SDS011;6349;50.904;6.136;2023-05-07T07:34:18;3.05;;;2.75;;
12567;SDS011;6349;50.904;6.136;2023-05-07T07:36:18;2.60;;;2.40;;
12567;SDS011;6349;50.904;6.136;2023-05-07T07:38:22;3.35;;;2.90;;
12567;SDS011;6349;50.904;6.136;2023-05-07T07:40:24;2.50;;;2.30;;
12567;SDS011;6349;50.904;6.136;2023-05-07T07:42:25;2.90;;;2.70;;
12567;SDS011;6349;50.904;6.136;2023-05-07T07:44:27;3.80;;;2.55;;
12567;SDS011;6349;50.904;6.136;2023-05-07T07:46:29;2.67;;;2.47;;
12567;SDS011;6349;50.904;6.136;2023-05-07T07:48:31;3.47;;;2.53;;
12567;SDS011;6349;50.904;6.136;2023-05-07T07:50:34;2.88;;;2.58;;
12567;SDS011;6349;50.904;6.136;2023-05-07T07:52:36;2.78;;;2.55;;
12567;SDS011;6349;50.904;6.136;2023-05-07T07:54:38;3.80;;;2.95;;
12567;SDS011;6349;50.904;6.136;2023-05-07T07:56:40;4.43;;;2.80;;
12567;SDS011;6349;50.904;6.136;2023-05-07T07:58:43;3.40;;;2.50;;
12567;SDS011;6349;50.904;6.136;2023-05-07T08:00:44;3.00;;;2.70;;
12567;SDS011;6349;50.904;6.136;2023-05-07T08:02:46;3.90;;;2.53;;
12567;SDS011;6349;50.904;6.136;2023-05-07T08:04:48;3.13;;;2.50;;
12567;SDS011;6349;50.904;6.136;2023-05-07T08:06:50;4.05;;;2.75;;
12567;SDS011;6349;50.904;6.136;2023-05-07T08:08:52;3.05;;;2.85;;
12567;SDS011;6349;50.904;6.136;2023-05-07T08:10:53;2.90;;;2.50;;
12567;SDS011;6349;50.904;6.136;2023-05-07T08:12:55;2.83;;;2.60;;
12567;SDS011;6349;50.904;6.136;2023-05-07T08:14:57;3.20;;;2.80;;
12567;SDS011;6349;50.904;6.136;2023-05-07T08:16:59;3.25;;;2.85;;
12567;SDS011;6349;50.904;6.136;2023-05-07T08:19:00;4.07;;;2.88;;
12567;SDS011;6349;50.904;6.136;2023-05-07T08:21:02;4.50;;;2.90;;
12567;SDS011;6349;50.904;6.136;2023-05-07T08:23:04;3.30;;;3.00;;
12567;SDS011;6349;50.904;6.136;2023-05-07T08:25:08;3.13;;;2.47;;
12567;SDS011;6349;50.904;6.136;2023-05-07T08:27:10;2.67;;;2.47;;
12567;SDS011;6349;50.904;6.136;2023-05-07T08:29:12;3.00;;;2.60;;
12567;SDS011;6349;50.904;6.136;2023-05-07T08:31:13;2.40;;;2.20;;
12567;SDS011;6349;50.904;6.136;2023-05-07T08:33:15;3.13;;;2.60;;
12567;SDS011;6349;50.904;6.136;2023-05-07T08:35:17;2.80;;;2.60;;
12567;SDS011;6349;50.904;6.136;2023-05-07T08:37:19;3.30;;;2.50;;
12567;SDS011;6349;50.904;6.136;2023-05-07T08:39:21;2.90;;;2.17;;
12567;SDS011;6349;50.904;6.136;2023-05-07T08:41:23;3.95;;;1.90;;
12567;SDS011;6349;50.904;6.136;2023-05-07T08:43:26;3.53;;;2.33;;
12567;SDS011;6349;50.904;6.136;2023-05-07T08:45:29;3.15;;;2.58;;
12567;SDS011;6349;50.904;6.136;2023-05-07T08:47:35;2.92;;;2.25;;
12567;SDS011;6349;50.904;6.136;2023-05-07T08:49:53;2.25;;;2.05;;
12567;SDS011;6349;50.904;6.136;2023-05-07T08:51:56;3.22;;;2.38;;
12567;SDS011;6349;50.904;6.136;2023-05-07T08:53:58;2.83;;;2.22;;
12567;SDS011;6349;50.904;6.136;2023-05-07T08:56:00;2.83;;;2.63;;
12567;SDS011;6349;50.904;6.136;2023-05-07T08:58:03;2.42;;;2.22;;
12567;SDS011;6349;50.904;6.136;2023-05-07T09:00:05;2.00;;;1.90;;
12567;SDS011;6349;50.904;6.136;2023-05-07T09:02:08;3.70;;;2.65;;
12567;SDS011;6349;50.904;6.136;2023-05-07T09:04:12;3.35;;;2.20;;
12567;SDS011;6349;50.904;6.136;2023-05-07T09:06:14;3.22;;;2.58;;
12567;SDS011;6349;50.904;6.136;2023-05-07T09:08:17;2.85;;;2.40;;
12567;SDS011;6349;50.904;6.136;2023-05-07T09:10:19;2.72;;;2.45;;
12567;SDS011;6349;50.904;6.136;2023-05-07T09:12:22;3.22;;;2.20;;
12567;SDS011;6349;50.904;6.136;2023-05-07T09:14:24;2.78;;;2.20;;
12567;SDS011;6349;50.904;6.136;2023-05-07T09:16:27;3.33;;;2.10;;
12567;SDS011;6349;50.904;6.136;2023-05-07T09:18:31;2.30;;;2.00;;
12567;SDS011;6349;50.904;6.136;2023-05-07T09:20:33;2.60;;;2.40;;
12567;SDS011;6349;50.904;6.136;2023-05-07T09:22:37;2.63;;;1.98;;
12567;SDS011;6349;50.904;6.136;2023-05-07T09:24:40;2.50;;;1.88;;
12567;SDS011;6349;50.904;6.136;2023-05-07T09:26:42;2.40;;;2.10;;
12567;SDS011;6349;50.904;6.136;2023-05-07T09:28:45;2.03;;;1.70;;
12567;SDS011;6349;50.904;6.136;2023-05-07T09:30:47;2.65;;;1.90;;
12567;SDS011;6349;50.904;6.136;2023-05-07T09:32:49;4.35;;;1.65;;
12567;SDS011;6349;50.904;6.136;2023-05-07T09:34:52;1.95;;;1.73;;
12567;SDS011;6349;50.904;6.136;2023-05-07T09:36:54;3.08;;;2.10;;
12567;SDS011;6349;50.904;6.136;2023-05-07T09:38:56;4.60;;;2.40;;
12567;SDS011;6349;50.904;6.136;2023-05-07T09:41:09;4.05;;;2.08;;
12567;SDS011;6349;50.904;6.136;2023-05-07T09:43:13;3.35;;;1.80;;
12567;SDS011;6349;50.904;6.136;2023-05-07T09:45:16;6.18;;;1.98;;
12567;SDS011;6349;50.904;6.136;2023-05-07T09:47:23;2.25;;;1.80;;
12567;SDS011;6349;50.904;6.136;2023-05-07T09:49:28;2.42;;;1.73;;
12567;SDS011;6349;50.904;6.136;2023-05-07T09:51:41;5.88;;;1.58;;
12567;SDS011;6349;50.904;6.136;2023-05-07T09:53:48;4.05;;;1.58;;
12567;SDS011;6349;50.904;6.136;2023-05-07T09:55:55;2.35;;;1.30;;
12567;SDS011;6349;50.904;6.136;2023-05-07T09:57:58;4.00;;;1.70;;
12567;SDS011;6349;50.904;6.136;2023-05-07T10:00:01;2.88;;;1.55;;
12567;SDS011;6349;50.904;6.136;2023-05-07T10:02:05;1.92;;;1.55;;
12567;SDS011;6349;50.904;6.136;2023-05-07T10:04:08;2.58;;;1.73;;
12567;SDS011;6349;50.904;6.136;2023-05-07T10:06:11;2.67;;;1.58;;
12567;SDS011;6349;50.904;6.136;2023-05-07T10:08:15;3.47;;;1.77;;
12567;SDS011;6349;50.904;6.136;2023-05-07T10:10:17;2.72;;;1.67;;
12567;SDS011;6349;50.904;6.136;2023-05-07T10:12:19;3.00;;;1.75;;
12567;SDS011;6349;50.904;6.136;2023-05-07T10:14:22;2.65;;;1.60;;
12567;SDS011;6349;50.904;6.136;2023-05-07T10:16:25;3.72;;;1.55;;
12567;SDS011;6349;50.904;6.136;2023-05-07T10:18:28;3.17;;;1.70;;
12567;SDS011;6349;50.904;6.136;2023-05-07T10:20:34;1.80;;;1.60;;
12567;SDS011;6349;50.904;6.136;2023-05-07T10:22:41;11.00;;;2.67;;
12567;SDS011;6349;50.904;6.136;2023-05-07T10:24:50;16.52;;;4.05;;
12567;SDS011;6349;50.904;6.136;2023-05-07T10:26:55;14.13;;;3.80;;
12567;SDS011;6349;50.904;6.136;2023-05-07T10:29:04;13.77;;;3.42;;
12567;SDS011;6349;50.904;6.136;2023-05-07T10:33:58;6.95;;;2.45;;
12567;SDS011;6349;50.904;6.136;2023-05-07T10:36:03;2.97;;;2.10;;
12567;SDS011;6349;50.904;6.136;2023-05-07T10:38:05;2.42;;;1.92;;
12567;SDS011;6349;50.904;6.136;2023-05-07T10:40:08;3.25;;;2.25;;
12567;SDS011;6349;50.904;6.136;2023-05-07T10:42:12;41.50;;;6.13;;
12567;SDS011;6349;50.904;6.136;2023-05-07T10:44:27;9.65;;;2.90;;
12567;SDS011;6349;50.904;6.136;2023-05-07T10:46:32;3.53;;;2.30;;
12567;SDS011;6349;50.904;6.136;2023-05-07T10:49:21;4.68;;;2.25;;
12567;SDS011;6349;50.904;6.136;2023-05-07T10:51:20;4.68;;;2.25;;
12567;SDS011;6349;50.904;6.136;2023-05-07T10:53:23;4.38;;;2.25;;
12567;SDS011;6349;50.904;6.136;2023-05-07T10:55:28;2.47;;;2.28;;
12567;SDS011;6349;50.904;6.136;2023-05-07T10:57:35;3.15;;;2.58;;
12567;SDS011;6349;50.904;6.136;2023-05-07T10:59:37;3.03;;;2.80;;
12567;SDS011;6349;50.904;6.136;2023-05-07T11:01:57;4.35;;;2.45;;
12567;SDS011;6349;50.904;6.136;2023-05-07T11:04:15;3.25;;;2.80;;
12567;SDS011;6349;50.904;6.136;2023-05-07T11:06:18;4.22;;;2.50;;
12567;SDS011;6349;50.904;6.136;2023-05-07T11:08:20;3.10;;;2.40;;
12567;SDS011;6349;50.904;6.136;2023-05-07T11:10:22;2.58;;;2.35;;
12567;SDS011;6349;50.904;6.136;2023-05-07T11:14:43;3.53;;;2.45;;
12567;SDS011;6349;50.904;6.136;2023-05-07T11:16:46;3.08;;;2.30;;
12567;SDS011;6349;50.904;6.136;2023-05-07T11:18:48;3.10;;;2.40;;
12567;SDS011;6349;50.904;6.136;2023-05-07T11:20:57;2.50;;;2.28;;
12567;SDS011;6349;50.904;6.136;2023-05-07T11:23:01;3.58;;;2.78;;
12567;SDS011;6349;50.904;6.136;2023-05-07T11:25:06;2.78;;;2.45;;
12567;SDS011;6349;50.904;6.136;2023-05-07T11:27:08;2.75;;;2.38;;
12567;SDS011;6349;50.904;6.136;2023-05-07T11:29:16;2.60;;;2.40;;
12567;SDS011;6349;50.904;6.136;2023-05-07T11:31:26;3.88;;;2.85;;
12567;SDS011;6349;50.904;6.136;2023-05-07T11:33:31;3.03;;;2.72;;
12567;SDS011;6349;50.904;6.136;2023-05-07T11:35:34;4.50;;;2.70;;
12567;SDS011;6349;50.904;6.136;2023-05-07T11:37:36;3.47;;;2.72;;
12567;SDS011;6349;50.904;6.136;2023-05-07T11:39:40;3.20;;;2.95;;
12567;SDS011;6349;50.904;6.136;2023-05-07T11:41:41;7.30;;;3.03;;
12567;SDS011;6349;50.904;6.136;2023-05-07T11:43:59;4.32;;;2.50;;
12567;SDS011;6349;50.904;6.136;2023-05-07T11:46:11;3.13;;;2.33;;
12567;SDS011;6349;50.904;6.136;2023-05-07T11:48:14;2.97;;;2.63;;
12567;SDS011;6349;50.904;6.136;2023-05-07T11:50:16;3.50;;;3.13;;
12567;SDS011;6349;50.904;6.136;2023-05-07T11:52:18;6.80;;;2.90;;
12567;SDS011;6349;50.904;6.136;2023-05-07T11:54:21;3.47;;;2.60;;
12567;SDS011;6349;50.904;6.136;2023-05-07T11:56:23;3.60;;;2.53;;
12567;SDS011;6349;50.904;6.136;2023-05-07T11:58:25;4.03;;;2.60;;
12567;SDS011;6349;50.904;6.136;2023-05-07T12:00:26;2.63;;;2.40;;
12567;SDS011;6349;50.904;6.136;2023-05-07T12:02:28;2.88;;;2.65;;
12567;SDS011;6349;50.904;6.136;2023-05-07T12:04:30;2.80;;;2.55;;
12567;SDS011;6349;50.904;6.136;2023-05-07T12:06:35;3.30;;;2.70;;
12567;SDS011;6349;50.904;6.136;2023-05-07T12:08:38;3.10;;;2.80;;
12567;SDS011;6349;50.904;6.136;2023-05-07T12:10:42;2.60;;;2.40;;
12567;SDS011;6349;50.904;6.136;2023-05-07T12:12:47;3.17;;;2.72;;
12567;SDS011;6349;50.904;6.136;2023-05-07T12:14:49;3.88;;;2.70;;
12567;SDS011;6349;50.904;6.136;2023-05-07T12:16:50;3.30;;;2.83;;
12567;SDS011;6349;50.904;6.136;2023-05-07T12:18:53;2.28;;;1.98;;
12567;SDS011;6349;50.904;6.136;2023-05-07T12:20:56;3.17;;;2.22;;
12567;SDS011;6349;50.904;6.136;2023-05-07T12:23:01;2.45;;;2.25;;
12567;SDS011;6349;50.904;6.136;2023-05-07T12:25:03;3.83;;;2.38;;
12567;SDS011;6349;50.904;6.136;2023-05-07T12:27:05;3.20;;;2.50;;
12567;SDS011;6349;50.904;6.136;2023-05-07T12:29:07;2.92;;;2.63;;
12567;SDS011;6349;50.904;6.136;2023-05-07T12:31:09;3.25;;;2.53;;
12567;SDS011;6349;50.904;6.136;2023-05-07T12:33:13;4.82;;;2.70;;
12567;SDS011;6349;50.904;6.136;2023-05-07T12:35:25;3.08;;;2.75;;
12567;SDS011;6349;50.904;6.136;2023-05-07T12:37:31;3.45;;;3.10;;